sensor_id;sensor_type;location;lat;lon;timestamp;pressure;altitude;pressure_sealevel;temperature;humidity
81913;BME280;71377;50.698;7.164;2023-07-09T00:01:25;101141.88;;;23.70;63.88
81913;BME280;71377;50.698;7.164;2023-07-09T00:03:51;101141.66;;;23.73;63.92
81913;BME280;71377;50.698;7.164;2023-07-09T00:06:19;101140.44;;;23.66;64.26
81913;BME280;71377;50.698;7.164;2023-07-09T00:08:48;101141.19;;;23.57;64.84
81913;BME280;71377;50.698;7.164;2023-07-09T00:11:16;101137.28;;;23.50;65.21
81913;BME280;71377;50.698;7.164;2023-07-09T00:13:42;101144.75;;;23.46;65.17
81913;BME280;71377;50.698;7.164;2023-07-09T00:16:24;101136.06;;;23.42;65.48
81913;BME280;71377;50.698;7.164;2023-07-09T00:18:51;101135.84;;;23.34;65.91
81913;BME280;71377;50.698;7.164;2023-07-09T00:21:19;101144.75;;;23.35;66.30
81913;BME280;71377;50.698;7.164;2023-07-09T00:23:46;101143.03;;;23.34;66.54
81913;BME280;71377;50.698;7.164;2023-07-09T00:26:16;101138.06;;;23.29;66.52
81913;BME280;71377;50.698;7.164;2023-07-09T00:28:43;101138.06;;;23.29;66.61
81913;BME280;71377;50.698;7.164;2023-07-09T00:31:15;101134.41;;;23.08;67.39
81913;BME280;71377;50.698;7.164;2023-07-09T00:33:42;101129.56;;;23.13;67.39
81913;BME280;71377;50.698;7.164;2023-07-09T00:36:26;101136.50;;;23.04;67.80
81913;BME280;71377;50.698;7.164;2023-07-09T00:38:52;101127.09;;;23.10;67.70
81913;BME280;71377;50.698;7.164;2023-07-09T00:41:22;101133.56;;;23.07;67.96
81913;BME280;71377;50.698;7.164;2023-07-09T00:43:51;101130.06;;;22.96;68.30
81913;BME280;71377;50.698;7.164;2023-07-09T00:49:00;101124.31;;;22.89;68.67
81913;BME280;71377;50.698;7.164;2023-07-09T00:51:33;101118.34;;;22.97;68.60
81913;BME280;71377;50.698;7.164;2023-07-09T00:54:09;101129.69;;;22.89;69.11
81913;BME280;71377;50.698;7.164;2023-07-09T00:56:44;101126.13;;;22.77;69.43
81913;BME280;71377;50.698;7.164;2023-07-09T00:59:15;101132.69;;;22.73;69.74
81913;BME280;71377;50.698;7.164;2023-07-09T01:01:44;101122.56;;;22.66;69.97
81913;BME280;71377;50.698;7.164;2023-07-09T01:04:13;101130.72;;;22.75;69.60
81913;BME280;71377;50.698;7.164;2023-07-09T01:06:45;101134.25;;;22.76;69.91
81913;BME280;71377;50.698;7.164;2023-07-09T01:09:13;101134.97;;;22.67;70.10
81913;BME280;71377;50.698;7.164;2023-07-09T01:11:40;101128.78;;;22.66;70.28
81913;BME280;71377;50.698;7.164;2023-07-09T01:14:09;101130.00;;;22.51;70.81
81913;BME280;71377;50.698;7.164;2023-07-09T01:16:48;101127.91;;;22.66;70.60
81913;BME280;71377;50.698;7.164;2023-07-09T01:19:15;101127.06;;;22.65;70.14
81913;BME280;71377;50.698;7.164;2023-07-09T01:21:49;101136.41;;;22.48;70.39
81913;BME280;71377;50.698;7.164;2023-07-09T01:27:17;101132.94;;;22.59;70.27
81913;BME280;71377;50.698;7.164;2023-07-09T01:29:45;101135.69;;;22.46;71.20
81913;BME280;71377;50.698;7.164;2023-07-09T01:32:19;101134.69;;;22.36;71.97
81913;BME280;71377;50.698;7.164;2023-07-09T01:34:49;101133.00;;;22.35;71.81
81913;BME280;71377;50.698;7.164;2023-07-09T01:37:21;101135.53;;;22.25;72.03
81913;BME280;71377;50.698;7.164;2023-07-09T01:39:49;101133.81;;;22.24;71.96
81913;BME280;71377;50.698;7.164;2023-07-09T01:42:17;101137.44;;;22.23;72.27
81913;BME280;71377;50.698;7.164;2023-07-09T01:44:44;101135.53;;;22.25;72.45
81913;BME280;71377;50.698;7.164;2023-07-09T01:47:12;101137.44;;;22.23;71.99
81913;BME280;71377;50.698;7.164;2023-07-09T01:49:38;101138.66;;;22.19;72.37
81913;BME280;71377;50.698;7.164;2023-07-09T01:52:06;101145.13;;;22.28;71.88
81913;BME280;71377;50.698;7.164;2023-07-09T01:54:38;101147.56;;;22.31;71.72
81913;BME280;71377;50.698;7.164;2023-07-09T01:57:24;101151.88;;;22.10;72.29
81913;BME280;71377;50.698;7.164;2023-07-09T01:59:54;101148.47;;;22.08;72.44
81913;BME280;71377;50.698;7.164;2023-07-09T02:02:21;101150.19;;;22.09;72.30
81913;BME280;71377;50.698;7.164;2023-07-09T02:04:51;101152.09;;;22.07;72.43
81913;BME280;71377;50.698;7.164;2023-07-09T02:07:19;101144.97;;;22.07;72.49
81913;BME280;71377;50.698;7.164;2023-07-09T02:09:46;101152.00;;;22.08;72.49
81913;BME280;71377;50.698;7.164;2023-07-09T02:12:16;101152.16;;;21.94;73.03
81913;BME280;71377;50.698;7.164;2023-07-09T02:14:44;101157.22;;;21.86;73.14
81913;BME280;71377;50.698;7.164;2023-07-09T02:17:12;101144.09;;;21.83;73.42
81913;BME280;71377;50.698;7.164;2023-07-09T02:19:39;101143.44;;;21.79;73.70
81913;BME280;71377;50.698;7.164;2023-07-09T02:22:07;101152.22;;;21.81;73.61
81913;BME280;71377;50.698;7.164;2023-07-09T02:24:34;101150.56;;;21.67;74.04
81913;BME280;71377;50.698;7.164;2023-07-09T02:27:02;101142.81;;;21.76;73.46
81913;BME280;71377;50.698;7.164;2023-07-09T02:29:29;101152.03;;;21.71;73.71
81913;BME280;71377;50.698;7.164;2023-07-09T02:31:57;101153.66;;;21.74;73.61
81913;BME280;71377;50.698;7.164;2023-07-09T02:34:28;101148.91;;;21.78;73.29
81913;BME280;71377;50.698;7.164;2023-07-09T02:36:56;101150.78;;;21.88;72.73
81913;BME280;71377;50.698;7.164;2023-07-09T02:39:24;101161.94;;;21.82;72.81
81913;BME280;71377;50.698;7.164;2023-07-09T02:41:51;101159.56;;;21.90;72.66
81913;BME280;71377;50.698;7.164;2023-07-09T02:44:18;101158.91;;;21.87;72.61
81913;BME280;71377;50.698;7.164;2023-07-09T02:46:45;101155.28;;;21.88;72.87
81913;BME280;71377;50.698;7.164;2023-07-09T02:49:13;101163.78;;;21.82;73.08
81913;BME280;71377;50.698;7.164;2023-07-09T02:51:40;101162.28;;;21.78;73.35
81913;BME280;71377;50.698;7.164;2023-07-09T02:54:07;101165.31;;;21.73;73.76
81913;BME280;71377;50.698;7.164;2023-07-09T02:56:33;101171.50;;;21.73;73.37
81913;BME280;71377;50.698;7.164;2023-07-09T02:59:02;101164.06;;;21.66;73.77
81913;BME280;71377;50.698;7.164;2023-07-09T03:01:30;101170.66;;;21.73;73.98
81913;BME280;71377;50.698;7.164;2023-07-09T03:03:59;101160.41;;;21.67;74.20
81913;BME280;71377;50.698;7.164;2023-07-09T03:06:29;101171.84;;;21.69;74.11
81913;BME280;71377;50.698;7.164;2023-07-09T03:08:55;101177.59;;;21.76;73.94
81913;BME280;71377;50.698;7.164;2023-07-09T03:11:22;101164.47;;;21.72;73.77
81913;BME280;71377;50.698;7.164;2023-07-09T03:13:48;101176.22;;;21.70;73.59
81913;BME280;71377;50.698;7.164;2023-07-09T03:16:16;101175.19;;;21.60;73.75
81913;BME280;71377;50.698;7.164;2023-07-09T03:18:42;101181.44;;;21.71;73.12
81913;BME280;71377;50.698;7.164;2023-07-09T03:21:09;101177.53;;;21.64;73.55
81913;BME280;71377;50.698;7.164;2023-07-09T03:23:35;101178.28;;;21.66;73.28
81913;BME280;71377;50.698;7.164;2023-07-09T03:26:02;101187.38;;;21.64;73.40
81913;BME280;71377;50.698;7.164;2023-07-09T03:28:31;101189.69;;;21.68;73.24
81913;BME280;71377;50.698;7.164;2023-07-09T03:30:58;101189.41;;;21.60;73.57
81913;BME280;71377;50.698;7.164;2023-07-09T03:33:25;101193.19;;;21.45;74.41
81913;BME280;71377;50.698;7.164;2023-07-09T03:35:52;101200.91;;;21.37;74.51
81913;BME280;71377;50.698;7.164;2023-07-09T03:38:19;101201.34;;;21.31;74.97
81913;BME280;71377;50.698;7.164;2023-07-09T03:40:45;101196.63;;;21.34;74.58
81913;BME280;71377;50.698;7.164;2023-07-09T03:43:11;101197.38;;;21.24;75.23
81913;BME280;71377;50.698;7.164;2023-07-09T03:45:38;101199.84;;;21.39;74.27
81913;BME280;71377;50.698;7.164;2023-07-09T03:48:05;101195.91;;;21.32;74.63
81913;BME280;71377;50.698;7.164;2023-07-09T03:50:32;101203.69;;;21.35;74.34
81913;BME280;71377;50.698;7.164;2023-07-09T03:52:59;101203.56;;;21.37;73.85
81913;BME280;71377;50.698;7.164;2023-07-09T03:55:27;101209.34;;;21.43;73.02
81913;BME280;71377;50.698;7.164;2023-07-09T03:57:54;101210.53;;;21.39;73.40
81913;BME280;71377;50.698;7.164;2023-07-09T04:00:21;101213.53;;;21.35;73.59
81913;BME280;71377;50.698;7.164;2023-07-09T04:02:48;101204.75;;;21.33;73.70
81913;BME280;71377;50.698;7.164;2023-07-09T04:05:15;101210.53;;;21.27;73.78
81913;BME280;71377;50.698;7.164;2023-07-09T04:07:41;101216.53;;;21.30;73.55
81913;BME280;71377;50.698;7.164;2023-07-09T04:10:08;101213.09;;;21.28;73.63
81913;BME280;71377;50.698;7.164;2023-07-09T04:12:34;101212.75;;;21.45;73.20
81913;BME280;71377;50.698;7.164;2023-07-09T04:15:04;101221.84;;;21.43;72.76
81913;BME280;71377;50.698;7.164;2023-07-09T04:17:31;101219.06;;;21.44;72.72
81913;BME280;71377;50.698;7.164;2023-07-09T04:19:57;101218.97;;;21.46;72.52
81913;BME280;71377;50.698;7.164;2023-07-09T04:22:24;101228.16;;;21.55;72.39
81913;BME280;71377;50.698;7.164;2023-07-09T04:24:51;101221.06;;;21.54;72.50
81913;BME280;71377;50.698;7.164;2023-07-09T04:27:19;101224.16;;;21.60;72.35
81913;BME280;71377;50.698;7.164;2023-07-09T04:29:46;101221.22;;;21.76;71.73
81913;BME280;71377;50.698;7.164;2023-07-09T04:32:13;101225.44;;;21.67;72.43
81913;BME280;71377;50.698;7.164;2023-07-09T04:34:41;101219.66;;;21.73;72.17
81913;BME280;71377;50.698;7.164;2023-07-09T04:37:10;101218.75;;;21.86;71.71
81913;BME280;71377;50.698;7.164;2023-07-09T04:39:38;101216.06;;;21.86;71.69
81913;BME280;71377;50.698;7.164;2023-07-09T04:42:11;101214.06;;;21.77;72.04
81913;BME280;71377;50.698;7.164;2023-07-09T04:44:38;101210.94;;;21.83;71.87
81913;BME280;71377;50.698;7.164;2023-07-09T04:47:04;101214.34;;;21.85;71.69
81913;BME280;71377;50.698;7.164;2023-07-09T04:49:31;101203.72;;;21.96;71.23
81913;BME280;71377;50.698;7.164;2023-07-09T04:51:58;101211.97;;;21.93;71.58
81913;BME280;71377;50.698;7.164;2023-07-09T04:54:26;101209.31;;;21.93;71.53
81913;BME280;71377;50.698;7.164;2023-07-09T04:56:53;101211.75;;;21.96;71.49
81913;BME280;71377;50.698;7.164;2023-07-09T04:59:19;101204.97;;;22.03;71.28
81913;BME280;71377;50.698;7.164;2023-07-09T05:01:46;101206.06;;;22.00;71.38
81913;BME280;71377;50.698;7.164;2023-07-09T05:04:13;101212.03;;;22.04;71.35
81913;BME280;71377;50.698;7.164;2023-07-09T05:06:39;101207.28;;;22.20;70.66
81913;BME280;71377;50.698;7.164;2023-07-09T05:09:06;101207.47;;;22.41;70.04
81913;BME280;71377;50.698;7.164;2023-07-09T05:11:34;101208.56;;;22.39;70.47
81913;BME280;71377;50.698;7.164;2023-07-09T05:14:02;101205.59;;;22.31;70.97
81913;BME280;71377;50.698;7.164;2023-07-09T05:16:29;101203.00;;;22.42;70.18
81913;BME280;71377;50.698;7.164;2023-07-09T05:18:55;101203.50;;;22.58;69.76
81913;BME280;71377;50.698;7.164;2023-07-09T05:21:22;101206.09;;;22.71;69.69
81913;BME280;71377;50.698;7.164;2023-07-09T05:23:48;101204.72;;;22.54;70.37
81913;BME280;71377;50.698;7.164;2023-07-09T05:26:15;101203.75;;;22.66;70.02
81913;BME280;71377;50.698;7.164;2023-07-09T05:28:41;101202.78;;;22.67;69.84
81913;BME280;71377;50.698;7.164;2023-07-09T05:31:08;101202.44;;;22.72;69.46
81913;BME280;71377;50.698;7.164;2023-07-09T05:33:34;101210.78;;;22.91;68.82
81913;BME280;71377;50.698;7.164;2023-07-09T05:36:01;101209.72;;;22.94;68.86
81913;BME280;71377;50.698;7.164;2023-07-09T05:38:29;101206.53;;;23.00;68.72
81913;BME280;71377;50.698;7.164;2023-07-09T05:41:03;101196.19;;;23.06;68.37
81913;BME280;71377;50.698;7.164;2023-07-09T05:43:30;101199.97;;;23.04;68.25
81913;BME280;71377;50.698;7.164;2023-07-09T05:45:57;101198.50;;;23.00;68.38
81913;BME280;71377;50.698;7.164;2023-07-09T05:48:23;101210.44;;;23.07;68.41
81913;BME280;71377;50.698;7.164;2023-07-09T05:50:53;101200.44;;;23.09;68.09
81913;BME280;71377;50.698;7.164;2023-07-09T05:53:20;101199.72;;;23.18;67.96
81913;BME280;71377;50.698;7.164;2023-07-09T05:55:47;101202.63;;;23.26;67.75
81913;BME280;71377;50.698;7.164;2023-07-09T05:58:13;101201.28;;;23.43;67.50
81913;BME280;71377;50.698;7.164;2023-07-09T06:00:40;101197.28;;;23.49;66.86
81913;BME280;71377;50.698;7.164;2023-07-09T06:03:07;101200.19;;;23.57;67.06
81913;BME280;71377;50.698;7.164;2023-07-09T06:05:34;101203.94;;;23.77;67.31
81913;BME280;71377;50.698;7.164;2023-07-09T06:08:01;101206.53;;;23.67;68.42
81913;BME280;71377;50.698;7.164;2023-07-09T06:10:27;101212.63;;;23.58;69.19
81913;BME280;71377;50.698;7.164;2023-07-09T06:12:54;101211.03;;;23.66;69.29
81913;BME280;71377;50.698;7.164;2023-07-09T06:15:20;101205.78;;;23.76;69.14
81913;BME280;71377;50.698;7.164;2023-07-09T06:17:47;101211.00;;;23.78;69.00
81913;BME280;71377;50.698;7.164;2023-07-09T06:20:14;101208.09;;;23.81;69.29
81913;BME280;71377;50.698;7.164;2023-07-09T06:22:40;101209.03;;;23.91;68.57
81913;BME280;71377;50.698;7.164;2023-07-09T06:25:07;101207.22;;;23.91;68.93
81913;BME280;71377;50.698;7.164;2023-07-09T06:27:33;101210.66;;;24.14;67.71
81913;BME280;71377;50.698;7.164;2023-07-09T06:30:00;101209.88;;;24.23;67.18
81913;BME280;71377;50.698;7.164;2023-07-09T06:32:26;101210.22;;;24.41;66.43
81913;BME280;71377;50.698;7.164;2023-07-09T06:34:53;101207.03;;;24.68;65.32
81913;BME280;71377;50.698;7.164;2023-07-09T06:37:19;101211.28;;;24.71;64.91
81913;BME280;71377;50.698;7.164;2023-07-09T06:39:45;101198.53;;;24.73;63.91
81913;BME280;71377;50.698;7.164;2023-07-09T06:42:12;101205.72;;;24.93;63.92
81913;BME280;71377;50.698;7.164;2023-07-09T06:44:38;101208.88;;;24.98;63.44
81913;BME280;71377;50.698;7.164;2023-07-09T06:47:05;101195.25;;;25.11;63.41
81913;BME280;71377;50.698;7.164;2023-07-09T06:49:31;101193.03;;;25.26;62.56
81913;BME280;71377;50.698;7.164;2023-07-09T06:51:57;101198.00;;;25.21;63.20
81913;BME280;71377;50.698;7.164;2023-07-09T06:54:24;101199.88;;;25.30;62.10
81913;BME280;71377;50.698;7.164;2023-07-09T06:56:51;101191.41;;;25.44;62.43
81913;BME280;71377;50.698;7.164;2023-07-09T06:59:17;101206.34;;;25.68;61.52
81913;BME280;71377;50.698;7.164;2023-07-09T07:01:44;101196.31;;;25.79;61.56
81913;BME280;71377;50.698;7.164;2023-07-09T07:04:10;101193.09;;;25.95;60.51
81913;BME280;71377;50.698;7.164;2023-07-09T07:06:37;101196.09;;;26.11;60.20
81913;BME280;71377;50.698;7.164;2023-07-09T07:09:04;101194.69;;;26.07;60.35
81913;BME280;71377;50.698;7.164;2023-07-09T07:11:30;101199.47;;;26.13;60.68
81913;BME280;71377;50.698;7.164;2023-07-09T07:13:57;101192.69;;;26.38;60.21
81913;BME280;71377;50.698;7.164;2023-07-09T07:16:23;101197.25;;;26.38;59.77
81913;BME280;71377;50.698;7.164;2023-07-09T07:18:51;101190.84;;;26.68;59.16
81913;BME280;71377;50.698;7.164;2023-07-09T07:21:17;101189.84;;;26.59;59.39
81913;BME280;71377;50.698;7.164;2023-07-09T07:23:44;101192.94;;;26.64;59.16
81913;BME280;71377;50.698;7.164;2023-07-09T07:26:10;101190.00;;;26.67;59.03
81913;BME280;71377;50.698;7.164;2023-07-09T07:28:37;101191.94;;;26.85;58.57
81913;BME280;71377;50.698;7.164;2023-07-09T07:31:05;101191.94;;;26.85;58.28
81913;BME280;71377;50.698;7.164;2023-07-09T07:33:34;101183.66;;;26.96;58.01
81913;BME280;71377;50.698;7.164;2023-07-09T07:36:04;101191.03;;;27.03;58.05
81913;BME280;71377;50.698;7.164;2023-07-09T07:38:33;101182.88;;;27.23;57.59
81913;BME280;71377;50.698;7.164;2023-07-09T07:41:00;101186.06;;;27.64;56.75
81913;BME280;71377;50.698;7.164;2023-07-09T07:43:27;101177.63;;;27.49;57.18
81913;BME280;71377;50.698;7.164;2023-07-09T07:45:54;101188.09;;;27.52;56.60
81913;BME280;71377;50.698;7.164;2023-07-09T07:48:20;101181.00;;;27.51;56.57
81913;BME280;71377;50.698;7.164;2023-07-09T07:50:46;101182.91;;;27.68;56.49
81913;BME280;71377;50.698;7.164;2023-07-09T07:53:14;101183.88;;;27.95;55.70
81913;BME280;71377;50.698;7.164;2023-07-09T07:55:41;101187.72;;;28.10;55.39
81913;BME280;71377;50.698;7.164;2023-07-09T07:58:11;101190.13;;;28.13;55.30
81913;BME280;71377;50.698;7.164;2023-07-09T08:00:38;101186.47;;;28.22;54.61
81913;BME280;71377;50.698;7.164;2023-07-09T08:03:06;101184.50;;;28.24;54.62
81913;BME280;71377;50.698;7.164;2023-07-09T08:05:33;101185.09;;;28.18;55.22
81913;BME280;71377;50.698;7.164;2023-07-09T08:08:00;101182.31;;;28.46;54.55
81913;BME280;71377;50.698;7.164;2023-07-09T08:10:26;101184.78;;;28.39;54.68
81913;BME280;71377;50.698;7.164;2023-07-09T08:12:53;101181.88;;;28.50;54.30
81913;BME280;71377;50.698;7.164;2023-07-09T08:15:24;101179.34;;;28.57;54.44
81913;BME280;71377;50.698;7.164;2023-07-09T08:17:50;101180.88;;;28.77;53.63
81913;BME280;71377;50.698;7.164;2023-07-09T08:20:17;101179.97;;;28.94;52.49
81913;BME280;71377;50.698;7.164;2023-07-09T08:22:44;101170.19;;;28.93;52.48
81913;BME280;71377;50.698;7.164;2023-07-09T08:25:10;101166.84;;;29.08;52.19
81913;BME280;71377;50.698;7.164;2023-07-09T08:27:37;101159.19;;;29.29;51.61
81913;BME280;71377;50.698;7.164;2023-07-09T08:30:04;101158.66;;;29.34;51.76
81913;BME280;71377;50.698;7.164;2023-07-09T08:32:31;101171.38;;;29.41;51.42
81913;BME280;71377;50.698;7.164;2023-07-09T08:34:57;101159.28;;;29.62;50.92
81913;BME280;71377;50.698;7.164;2023-07-09T08:37:44;101157.97;;;29.74;50.63
81913;BME280;71377;50.698;7.164;2023-07-09T08:40:13;101158.28;;;29.71;50.78
81913;BME280;71377;50.698;7.164;2023-07-09T08:42:43;101153.91;;;29.86;50.19
81913;BME280;71377;50.698;7.164;2023-07-09T08:45:32;101157.00;;;29.99;50.15
81913;BME280;71377;50.698;7.164;2023-07-09T08:50:56;101150.56;;;30.00;50.18
81913;BME280;71377;50.698;7.164;2023-07-09T08:53:33;101151.91;;;29.96;50.15
81913;BME280;71377;50.698;7.164;2023-07-09T08:56:02;101146.84;;;30.01;50.08
81913;BME280;71377;50.698;7.164;2023-07-09T08:58:31;101138.75;;;30.26;49.67
81913;BME280;71377;50.698;7.164;2023-07-09T09:00:59;101135.31;;;30.32;49.51
81913;BME280;71377;50.698;7.164;2023-07-09T09:03:34;101142.41;;;30.49;49.63
81913;BME280;71377;50.698;7.164;2023-07-09T09:06:26;101145.84;;;30.67;49.15
81913;BME280;71377;50.698;7.164;2023-07-09T09:13:55;101132.91;;;30.86;48.75
81913;BME280;71377;50.698;7.164;2023-07-09T09:16:28;101125.69;;;31.01;48.13
81913;BME280;71377;50.698;7.164;2023-07-09T09:18:58;101130.03;;;31.18;48.23
81913;BME280;71377;50.698;7.164;2023-07-09T09:21:35;101126.31;;;31.19;47.56
81913;BME280;71377;50.698;7.164;2023-07-09T09:26:43;101127.19;;;31.51;47.07
81913;BME280;71377;50.698;7.164;2023-07-09T09:29:13;101129.66;;;31.92;46.13
81913;BME280;71377;50.698;7.164;2023-07-09T09:31:41;101125.13;;;31.84;45.80
81913;BME280;71377;50.698;7.164;2023-07-09T09:34:20;101128.63;;;31.93;45.61
81913;BME280;71377;50.698;7.164;2023-07-09T09:36:47;101124.44;;;32.05;45.29
81913;BME280;71377;50.698;7.164;2023-07-09T09:39:14;101119.22;;;32.18;44.85
81913;BME280;71377;50.698;7.164;2023-07-09T09:41:40;101129.78;;;32.36;44.42
81913;BME280;71377;50.698;7.164;2023-07-09T09:44:23;101132.75;;;32.49;44.14
81913;BME280;71377;50.698;7.164;2023-07-09T09:46:50;101125.94;;;32.30;44.26
81913;BME280;71377;50.698;7.164;2023-07-09T09:49:17;101127.53;;;32.40;43.94
81913;BME280;71377;50.698;7.164;2023-07-09T09:51:46;101122.72;;;32.50;43.87
81913;BME280;71377;50.698;7.164;2023-07-09T09:54:18;101113.50;;;32.66;43.80
81913;BME280;71377;50.698;7.164;2023-07-09T09:56:48;101113.41;;;32.74;43.19
81913;BME280;71377;50.698;7.164;2023-07-09T09:59:20;101111.19;;;32.92;42.82
81913;BME280;71377;50.698;7.164;2023-07-09T10:01:47;101109.78;;;33.11;42.98
81913;BME280;71377;50.698;7.164;2023-07-09T10:04:23;101099.56;;;33.34;41.83
81913;BME280;71377;50.698;7.164;2023-07-09T10:06:53;101100.84;;;33.53;41.75
81913;BME280;71377;50.698;7.164;2023-07-09T10:09:46;101096.78;;;33.64;41.07
81913;BME280;71377;50.698;7.164;2023-07-09T10:18:26;101077.94;;;33.69;40.81
81913;BME280;71377;50.698;7.164;2023-07-09T10:21:05;101066.72;;;34.00;40.00
81913;BME280;71377;50.698;7.164;2023-07-09T10:23:43;101070.44;;;34.20;39.27
81913;BME280;71377;50.698;7.164;2023-07-09T10:26:14;101079.38;;;34.08;39.17
81913;BME280;71377;50.698;7.164;2023-07-09T10:32:04;101071.97;;;34.92;37.43
81913;BME280;71377;50.698;7.164;2023-07-09T10:34:45;101073.41;;;34.88;37.37
81913;BME280;71377;50.698;7.164;2023-07-09T10:37:27;101072.44;;;35.02;37.08
81913;BME280;71377;50.698;7.164;2023-07-09T10:40:01;101081.28;;;35.04;36.98
81913;BME280;71377;50.698;7.164;2023-07-09T10:42:40;101077.28;;;35.07;37.65
81913;BME280;71377;50.698;7.164;2023-07-09T10:45:30;101074.50;;;35.48;37.13
81913;BME280;71377;50.698;7.164;2023-07-09T10:48:02;101080.63;;;35.63;37.10
81913;BME280;71377;50.698;7.164;2023-07-09T10:50:34;101075.56;;;35.54;37.09
81913;BME280;71377;50.698;7.164;2023-07-09T10:53:11;101078.09;;;35.68;36.42
81913;BME280;71377;50.698;7.164;2023-07-09T10:55:47;101068.25;;;36.07;35.82
81913;BME280;71377;50.698;7.164;2023-07-09T10:58:28;101066.75;;;36.44;36.23
81913;BME280;71377;50.698;7.164;2023-07-09T11:00:59;101063.38;;;36.49;35.13
81913;BME280;71377;50.698;7.164;2023-07-09T11:03:50;101070.44;;;36.76;34.70
81913;BME280;71377;50.698;7.164;2023-07-09T11:06:21;101062.47;;;36.68;34.07
81913;BME280;71377;50.698;7.164;2023-07-09T11:08:50;101063.81;;;36.39;34.65
81913;BME280;71377;50.698;7.164;2023-07-09T11:11:40;101062.56;;;36.09;35.55
81913;BME280;71377;50.698;7.164;2023-07-09T11:16:47;101052.75;;;36.86;34.45
81913;BME280;71377;50.698;7.164;2023-07-09T11:19:17;101039.22;;;36.91;34.50
81913;BME280;71377;50.698;7.164;2023-07-09T11:22:06;101036.84;;;37.46;33.37
81913;BME280;71377;50.698;7.164;2023-07-09T11:24:53;101034.84;;;37.28;33.88
81913;BME280;71377;50.698;7.164;2023-07-09T11:27:31;101022.66;;;37.17;33.98
81913;BME280;71377;50.698;7.164;2023-07-09T11:30:16;101023.47;;;37.56;33.61
81913;BME280;71377;50.698;7.164;2023-07-09T11:32:47;101017.00;;;37.75;33.62
81913;BME280;71377;50.698;7.164;2023-07-09T11:35:26;101015.13;;;37.69;33.68
81913;BME280;71377;50.698;7.164;2023-07-09T11:37:53;101024.09;;;37.58;33.83
81913;BME280;71377;50.698;7.164;2023-07-09T11:40:21;101022.69;;;37.74;33.37
81913;BME280;71377;50.698;7.164;2023-07-09T11:42:56;101025.44;;;37.49;33.66
81913;BME280;71377;50.698;7.164;2023-07-09T11:45:27;101016.28;;;37.86;33.00
81913;BME280;71377;50.698;7.164;2023-07-09T11:47:58;101017.03;;;38.18;32.83
81913;BME280;71377;50.698;7.164;2023-07-09T11:50:34;101012.13;;;37.77;33.43
81913;BME280;71377;50.698;7.164;2023-07-09T11:53:12;101013.91;;;38.15;32.93
81913;BME280;71377;50.698;7.164;2023-07-09T11:55:46;101011.31;;;38.20;32.55
81913;BME280;71377;50.698;7.164;2023-07-09T11:58:17;101005.47;;;38.53;32.55
81913;BME280;71377;50.698;7.164;2023-07-09T12:00:49;101004.72;;;39.13;31.82
81913;BME280;71377;50.698;7.164;2023-07-09T12:03:19;101002.75;;;39.01;31.28
81913;BME280;71377;50.698;7.164;2023-07-09T12:05:51;101001.56;;;39.09;32.02
81913;BME280;71377;50.698;7.164;2023-07-09T12:08:25;100997.28;;;38.83;31.90
81913;BME280;71377;50.698;7.164;2023-07-09T12:10:53;100999.91;;;38.41;32.13
81913;BME280;71377;50.698;7.164;2023-07-09T12:13:20;100997.06;;;38.48;32.90
81913;BME280;71377;50.698;7.164;2023-07-09T12:15:46;100994.63;;;38.40;32.00
81913;BME280;71377;50.698;7.164;2023-07-09T12:18:14;101000.22;;;38.33;31.71
81913;BME280;71377;50.698;7.164;2023-07-09T12:20:47;100984.28;;;37.80;32.11
81913;BME280;71377;50.698;7.164;2023-07-09T12:23:29;100988.88;;;38.05;32.22
81913;BME280;71377;50.698;7.164;2023-07-09T12:26:01;100990.59;;;37.56;32.91
81913;BME280;71377;50.698;7.164;2023-07-09T12:28:29;100985.69;;;37.01;32.86
81913;BME280;71377;50.698;7.164;2023-07-09T12:30:56;100980.88;;;36.39;34.50
81913;BME280;71377;50.698;7.164;2023-07-09T12:33:25;100981.56;;;36.14;34.44
81913;BME280;71377;50.698;7.164;2023-07-09T12:35:58;100969.13;;;36.12;33.75
81913;BME280;71377;50.698;7.164;2023-07-09T12:38:27;100968.34;;;35.98;33.71
81913;BME280;71377;50.698;7.164;2023-07-09T12:40:55;100970.00;;;36.06;33.94
81913;BME280;71377;50.698;7.164;2023-07-09T12:43:26;100959.69;;;36.01;34.01
81913;BME280;71377;50.698;7.164;2023-07-09T12:45:54;100954.44;;;36.64;33.53
81913;BME280;71377;50.698;7.164;2023-07-09T12:48:24;100952.19;;;37.31;33.29
81913;BME280;71377;50.698;7.164;2023-07-09T12:50:51;100942.63;;;37.90;31.84
81913;BME280;71377;50.698;7.164;2023-07-09T12:53:24;100941.81;;;38.44;31.05
81913;BME280;71377;50.698;7.164;2023-07-09T12:55:56;100937.00;;;38.58;30.78
81913;BME280;71377;50.698;7.164;2023-07-09T12:58:25;100943.50;;;39.06;30.42
81913;BME280;71377;50.698;7.164;2023-07-09T13:00:55;100937.00;;;38.88;30.60
81913;BME280;71377;50.698;7.164;2023-07-09T13:03:32;100934.97;;;38.65;30.47
81913;BME280;71377;50.698;7.164;2023-07-09T13:06:04;100936.22;;;38.69;29.70
81913;BME280;71377;50.698;7.164;2023-07-09T13:08:40;100931.91;;;38.25;30.77
81913;BME280;71377;50.698;7.164;2023-07-09T13:11:17;100927.03;;;38.27;29.95
81913;BME280;71377;50.698;7.164;2023-07-09T13:13:55;100929.03;;;37.52;31.19
81913;BME280;71377;50.698;7.164;2023-07-09T13:16:22;100920.69;;;37.65;31.16
81913;BME280;71377;50.698;7.164;2023-07-09T13:18:49;100922.59;;;38.08;31.74
81913;BME280;71377;50.698;7.164;2023-07-09T13:21:18;100920.41;;;37.73;32.00
81913;BME280;71377;50.698;7.164;2023-07-09T13:23:45;100917.19;;;37.26;32.67
81913;BME280;71377;50.698;7.164;2023-07-09T13:26:14;100924.28;;;37.09;32.39
81913;BME280;71377;50.698;7.164;2023-07-09T13:28:41;100912.94;;;37.05;32.91
81913;BME280;71377;50.698;7.164;2023-07-09T13:31:14;100916.94;;;37.34;31.56